Time;durP1;ratioP1;P1;durP2;ratioP2;P2;SDS_P1;SDS_P2;PMS_P1;PMS_P2;Temp;Humidity;BMP_temperature;BMP_pressure;BME280_temperature;BME280_humidity;BME280_pressure;Samples;Min_cycle;Max_cycle;Signal;HPM_P1;HPM_P2
2022/02/22 00:00:21;;;;;;;0.10;0.10;;;;;;;;;;5017806;28;20196;-75
2022/02/22 00:02:50;;;;;;;0.60;0.60;;;;;;;;;;5017637;28;20192;-75
2022/02/22 00:05:19;;;;;;;5.23;0.30;;;;;;;;;;5019704;28;20661;-75
2022/02/22 00:07:46;;;;;;;0.10;0.10;;;;;;;;;;5018976;28;20207;-75
2022/02/22 00:10:14;;;;;;;0.00;0.00;;;;;;;;;;5020948;28;20204;-75
2022/02/22 00:12:42;;;;;;;0.17;0.17;;;;;;;;;;5021321;28;20200;-75
2022/02/22 00:15:11;;;;;;;0.00;0.00;;;;;;;;;;5020911;28;20263;-75
2022/02/22 00:17:40;;;;;;;0.10;0.10;;;;;;;;;;5017114;28;20281;-75
2022/02/22 00:20:09;;;;;;;0.30;0.00;;;;;;;;;;5017193;28;20204;-75
2022/02/22 00:22:38;;;;;;;0.37;0.27;;;;;;;;;;5018164;28;20254;-75
2022/02/22 00:25:06;;;;;;;0.20;0.20;;;;;;;;;;5021423;28;20792;-75
2022/02/22 00:27:33;;;;;;;0.30;0.20;;;;;;;;;;5020397;28;20196;-75
2022/02/22 00:30:01;;;;;;;0.30;0.30;;;;;;;;;;5019737;28;20192;-76
2022/02/22 00:32:28;;;;;;;5.10;0.33;;;;;;;;;;5015370;28;20219;-76
2022/02/22 00:34:55;;;;;;;0.00;0.00;;;;;;;;;;5021297;28;20228;-76
2022/02/22 00:37:23;;;;;;;0.00;0.00;;;;;;;;;;5019652;28;20219;-76
2022/02/22 00:39:52;;;;;;;0.00;0.00;;;;;;;;;;5020121;28;20188;-76
2022/02/22 00:42:19;;;;;;;0.00;0.00;;;;;;;;;;5019870;28;20760;-76
2022/02/22 00:44:46;;;;;;;0.00;0.00;;;;;;;;;;5019200;28;20203;-76
2022/02/22 00:47:14;;;;;;;0.00;0.00;;;;;;;;;;5020329;28;20215;-75
2022/02/22 00:49:41;;;;;;;0.00;0.00;;;;;;;;;;5019734;28;20196;-76
2022/02/22 00:52:08;;;;;;;0.00;0.00;;;;;;;;;;5017693;28;20669;-75
2022/02/22 00:54:36;;;;;;;2.80;1.07;;;;;;;;;;5021099;28;20212;-75
2022/02/22 00:57:05;;;;;;;0.00;0.00;;;;;;;;;;5020122;28;20211;-75
2022/02/22 00:59:32;;;;;;;0.00;0.00;;;;;;;;;;5020016;28;20207;-75
2022/02/22 01:02:00;;;;;;;0.00;0.00;;;;;;;;;;5019848;28;20262;-75
2022/02/22 01:04:27;;;;;;;0.00;0.00;;;;;;;;;;5019082;28;20243;-76
2022/02/22 01:06:54;;;;;;;0.00;0.00;;;;;;;;;;5018988;28;20200;-75
2022/02/22 01:09:22;;;;;;;0.00;0.00;;;;;;;;;;5019414;28;21382;-75
2022/02/22 01:11:49;;;;;;;0.00;0.00;;;;;;;;;;5024937;28;20928;-75
2022/02/22 01:14:18;;;;;;;0.00;0.00;;;;;;;;;;5019528;28;20208;-75
2022/02/22 01:16:45;;;;;;;0.00;0.00;;;;;;;;;;5020458;28;20220;-75
2022/02/22 01:19:12;;;;;;;0.00;0.00;;;;;;;;;;5020580;28;20558;-75
2022/02/22 01:21:40;;;;;;;0.20;0.20;;;;;;;;;;5019344;28;20196;-75
2022/02/22 01:24:08;;;;;;;0.00;0.00;;;;;;;;;;5020544;28;20255;-75
2022/02/22 01:26:35;;;;;;;0.00;0.00;;;;;;;;;;5024675;28;20200;-75
2022/02/22 01:29:03;;;;;;;0.43;0.20;;;;;;;;;;5020121;28;20204;-76
2022/02/22 01:31:32;;;;;;;6.23;1.67;;;;;;;;;;5022242;28;20233;-75
2022/02/22 01:33:59;;;;;;;0.00;0.00;;;;;;;;;;5017981;28;20214;-74
2022/02/22 01:36:28;;;;;;;0.00;0.00;;;;;;;;;;5022916;28;20239;-75
2022/02/22 01:38:55;;;;;;;0.00;0.00;;;;;;;;;;5019863;28;20196;-76
2022/02/22 01:41:23;;;;;;;0.00;0.00;;;;;;;;;;5019883;28;20196;-75
2022/02/22 01:43:51;;;;;;;0.00;0.00;;;;;;;;;;5020242;28;20199;-75
2022/02/22 01:46:18;;;;;;;0.00;0.00;;;;;;;;;;5019614;28;20211;-74
2022/02/22 01:48:47;;;;;;;0.00;0.00;;;;;;;;;;5019057;28;20702;-74
2022/02/22 01:51:14;;;;;;;0.00;0.00;;;;;;;;;;5021626;28;20204;-75
2022/02/22 01:53:41;;;;;;;0.00;0.00;;;;;;;;;;5021360;28;20212;-75
2022/02/22 01:56:09;;;;;;;0.00;0.00;;;;;;;;;;5024475;28;20269;-75
2022/02/22 01:58:36;;;;;;;0.00;0.00;;;;;;;;;;5022135;28;20192;-75
2022/02/22 02:01:04;;;;;;;0.00;0.00;;;;;;;;;;5024156;28;20200;-75
2022/02/22 02:03:31;;;;;;;0.00;0.00;;;;;;;;;;5023721;28;20572;-75
2022/02/22 02:06:00;;;;;;;0.00;0.00;;;;;;;;;;5024216;28;20208;-75
2022/02/22 02:08:28;;;;;;;0.07;0.07;;;;;;;;;;5024390;28;20212;-74
2022/02/22 02:10:55;;;;;;;0.50;0.20;;;;;;;;;;5022960;28;20207;-75
2022/02/22 02:13:22;;;;;;;0.00;0.00;;;;;;;;;;5024327;28;20262;-75
2022/02/22 02:15:50;;;;;;;0.00;0.00;;;;;;;;;;5028236;28;20693;-74
2022/02/22 02:18:17;;;;;;;0.23;0.23;;;;;;;;;;5031815;28;20201;-74
2022/02/22 02:20:44;;;;;;;0.00;0.00;;;;;;;;;;5032103;28;20720;-74
2022/02/22 02:23:13;;;;;;;0.00;0.00;;;;;;;;;;5027057;28;20211;-75
2022/02/22 02:25:41;;;;;;;0.00;0.00;;;;;;;;;;5029658;28;20212;-74
2022/02/22 02:28:08;;;;;;;0.00;0.00;;;;;;;;;;5023089;28;20250;-75
2022/02/22 02:30:35;;;;;;;0.00;0.00;;;;;;;;;;5022946;28;20205;-75
2022/02/22 02:33:03;;;;;;;0.00;0.00;;;;;;;;;;5021893;28;20196;-75
2022/02/22 02:35:31;;;;;;;0.00;0.00;;;;;;;;;;5018977;28;20515;-75
2022/02/22 02:37:58;;;;;;;0.00;0.00;;;;;;;;;;5018736;28;20194;-75
2022/02/22 02:40:27;;;;;;;0.00;0.00;;;;;;;;;;5020042;28;20215;-75
2022/02/22 02:42:54;;;;;;;1.30;1.20;;;;;;;;;;5018627;28;20189;-75
2022/02/22 02:45:23;;;;;;;0.10;0.07;;;;;;;;;;5019524;28;20264;-75
2022/02/22 02:47:50;;;;;;;0.00;0.00;;;;;;;;;;5022646;28;20266;-75
2022/02/22 02:50:18;;;;;;;0.00;0.00;;;;;;;;;;5018981;28;20574;-75
2022/02/22 02:52:45;;;;;;;0.33;0.33;;;;;;;;;;5020947;28;20572;-75
2022/02/22 02:55:13;;;;;;;0.00;0.00;;;;;;;;;;5020542;28;20200;-74
2022/02/22 02:57:41;;;;;;;0.10;0.10;;;;;;;;;;5021170;28;20211;-75
2022/02/22 03:00:09;;;;;;;0.00;0.00;;;;;;;;;;5024453;28;20665;-74
2022/02/22 03:02:36;;;;;;;0.00;0.00;;;;;;;;;;5022034;28;20580;-74
2022/02/22 03:05:04;;;;;;;0.00;0.00;;;;;;;;;;5021756;28;20209;-75
2022/02/22 03:07:31;;;;;;;0.00;0.00;;;;;;;;;;5022229;28;20211;-73
2022/02/22 03:09:58;;;;;;;0.00;0.00;;;;;;;;;;5022892;28;20212;-75
2022/02/22 03:12:26;;;;;;;0.00;0.00;;;;;;;;;;5022113;28;20211;-74
2022/02/22 03:14:55;;;;;;;0.00;0.00;;;;;;;;;;5021491;28;20546;-74
2022/02/22 03:17:22;;;;;;;0.70;0.50;;;;;;;;;;5021055;28;20235;-74
2022/02/22 03:19:49;;;;;;;0.00;0.00;;;;;;;;;;5022350;28;20204;-75
2022/02/22 03:22:16;;;;;;;0.00;0.00;;;;;;;;;;5022563;28;20572;-74
2022/02/22 03:24:44;;;;;;;0.40;0.40;;;;;;;;;;5022086;28;20715;-74
2022/02/22 03:27:11;;;;;;;0.00;0.00;;;;;;;;;;5021909;28;20192;-74
2022/02/22 03:29:38;;;;;;;0.00;0.00;;;;;;;;;;5020670;28;20200;-75
2022/02/22 03:32:08;;;;;;;0.00;0.00;;;;;;;;;;5018922;28;20250;-74
2022/02/22 03:34:35;;;;;;;0.00;0.00;;;;;;;;;;5018458;28;20326;-74
2022/02/22 03:37:03;;;;;;;0.00;0.00;;;;;;;;;;5016657;28;20240;-74
2022/02/22 03:39:30;;;;;;;0.00;0.00;;;;;;;;;;5018043;28;20211;-77
2022/02/22 03:41:57;;;;;;;0.10;0.10;;;;;;;;;;5021764;28;20658;-75
2022/02/22 03:44:25;;;;;;;0.17;0.17;;;;;;;;;;5020104;28;20200;-75
2022/02/22 03:46:52;;;;;;;0.10;0.10;;;;;;;;;;5023839;28;20205;-74
2022/02/22 03:49:21;;;;;;;0.00;0.00;;;;;;;;;;5020382;28;20201;-74
2022/02/22 03:51:48;;;;;;;0.00;0.00;;;;;;;;;;5021963;28;20203;-74
2022/02/22 03:54:16;;;;;;;0.00;0.00;;;;;;;;;;5022923;28;20893;-75
2022/02/22 03:56:43;;;;;;;0.00;0.00;;;;;;;;;;5021891;28;20231;-75
2022/02/22 03:59:11;;;;;;;0.00;0.00;;;;;;;;;;5019870;28;20204;-75
2022/02/22 04:01:39;;;;;;;0.00;0.00;;;;;;;;;;5020328;28;20342;-74
2022/02/22 04:04:06;;;;;;;0.20;0.20;;;;;;;;;;5018051;28;20199;-75
2022/02/22 04:06:35;;;;;;;0.00;0.00;;;;;;;;;;5020354;28;20223;-74
2022/02/22 04:09:02;;;;;;;0.00;0.00;;;;;;;;;;5020838;28;20204;-74
2022/02/22 04:11:30;;;;;;;0.00;0.00;;;;;;;;;;5020672;28;20200;-74
2022/02/22 04:13:57;;;;;;;0.00;0.00;;;;;;;;;;5021630;28;20200;-73
2022/02/22 04:16:24;;;;;;;0.00;0.00;;;;;;;;;;5017706;28;20351;-74
2022/02/22 04:18:52;;;;;;;0.00;0.00;;;;;;;;;;5017212;28;20585;-75
2022/02/22 04:21:19;;;;;;;0.00;0.00;;;;;;;;;;5016343;28;20196;-74
2022/02/22 04:23:48;;;;;;;0.00;0.00;;;;;;;;;;5023477;28;20208;-73
2022/02/22 04:26:15;;;;;;;0.00;0.00;;;;;;;;;;5022418;28;20211;-73
2022/02/22 04:28:43;;;;;;;0.00;0.00;;;;;;;;;;5014834;28;20201;-74
2022/02/22 04:31:10;;;;;;;0.20;0.10;;;;;;;;;;5019459;28;20202;-74
2022/02/22 04:33:37;;;;;;;0.50;0.03;;;;;;;;;;5019067;28;20263;-74
2022/02/22 04:36:05;;;;;;;0.00;0.00;;;;;;;;;;5022264;28;20609;-75
2022/02/22 04:38:32;;;;;;;0.17;0.17;;;;;;;;;;5020168;28;20730;-74
2022/02/22 04:41:01;;;;;;;0.10;0.10;;;;;;;;;;5016319;28;20200;-74
2022/02/22 04:43:28;;;;;;;0.00;0.00;;;;;;;;;;5020773;28;20204;-76
2022/02/22 04:45:56;;;;;;;1.80;0.20;;;;;;;;;;5020774;28;20699;-75
2022/02/22 04:48:23;;;;;;;0.00;0.00;;;;;;;;;;5019982;28;20776;-74
2022/02/22 04:50:50;;;;;;;0.00;0.00;;;;;;;;;;5021683;28;20204;-74
2022/02/22 04:53:18;;;;;;;0.00;0.00;;;;;;;;;;5019231;28;20200;-74
2022/02/22 04:55:45;;;;;;;0.00;0.00;;;;;;;;;;5020775;28;20192;-74
2022/02/22 04:58:14;;;;;;;0.00;0.00;;;;;;;;;;5020084;28;20225;-73
2022/02/22 05:00:41;;;;;;;0.00;0.00;;;;;;;;;;5019923;28;20680;-73
2022/02/22 05:03:09;;;;;;;0.00;0.00;;;;;;;;;;5020751;28;20205;-74
2022/02/22 05:05:36;;;;;;;0.00;0.00;;;;;;;;;;5020620;28;20211;-75
2022/02/22 05:08:03;;;;;;;0.00;0.00;;;;;;;;;;5020009;28;20196;-76
2022/02/22 05:10:31;;;;;;;0.63;0.60;;;;;;;;;;5023437;28;20208;-74
2022/02/22 05:12:58;;;;;;;0.00;0.00;;;;;;;;;;5019730;28;20207;-75
2022/02/22 05:15:31;;;;;;;0.50;0.50;;;;;;;;;;5018590;28;20208;-76
2022/02/22 05:17:58;;;;;;;0.03;0.03;;;;;;;;;;5014669;28;20720;-76
2022/02/22 05:20:26;;;;;;;0.17;0.17;;;;;;;;;;5015686;28;20204;-75
2022/02/22 05:22:53;;;;;;;0.20;0.20;;;;;;;;;;5018079;28;20204;-74
2022/02/22 05:25:20;;;;;;;0.00;0.00;;;;;;;;;;5019512;28;20200;-75
2022/02/22 05:27:48;;;;;;;0.00;0.00;;;;;;;;;;5019187;28;20184;-75
2022/02/22 05:30:16;;;;;;;0.00;0.00;;;;;;;;;;5021679;28;20192;-75
2022/02/22 05:32:45;;;;;;;0.67;0.20;;;;;;;;;;5024593;28;20188;-75
2022/02/22 05:35:13;;;;;;;0.13;0.13;;;;;;;;;;5021259;28;20760;-76
2022/02/22 05:37:41;;;;;;;0.10;0.10;;;;;;;;;;5025027;28;20624;-75
2022/02/22 05:40:09;;;;;;;0.10;0.10;;;;;;;;;;5023508;28;20688;-74
2022/02/22 05:42:37;;;;;;;0.00;0.00;;;;;;;;;;5025490;28;20735;-75
2022/02/22 05:45:05;;;;;;;0.10;0.10;;;;;;;;;;5023553;28;20332;-75
2022/02/22 05:47:32;;;;;;;0.00;0.00;;;;;;;;;;5023149;28;20201;-74
2022/02/22 05:50:01;;;;;;;0.20;0.20;;;;;;;;;;5021247;28;20200;-74
2022/02/22 05:52:28;;;;;;;0.57;0.30;;;;;;;;;;5022489;28;20203;-74
2022/02/22 05:54:56;;;;;;;0.73;0.73;;;;;;;;;;5023072;28;20557;-74
2022/02/22 05:57:24;;;;;;;0.00;0.00;;;;;;;;;;5023079;28;20232;-74
2022/02/22 05:59:52;;;;;;;0.00;0.00;;;;;;;;;;5021567;28;20204;-74
2022/02/22 06:02:19;;;;;;;0.00;0.00;;;;;;;;;;5021378;28;20575;-75
2022/02/22 06:04:47;;;;;;;0.00;0.00;;;;;;;;;;5023297;28;20200;-74
2022/02/22 06:07:20;;;;;;;2.80;1.57;;;;;;;;;;5025733;28;20204;-74
2022/02/22 06:09:47;;;;;;;1.20;0.20;;;;;;;;;;5022514;28;20200;-75
2022/02/22 06:12:14;;;;;;;0.00;0.00;;;;;;;;;;5020949;28;20207;-75
2022/02/22 06:14:42;;;;;;;2.53;1.83;;;;;;;;;;5022576;28;20216;-75
2022/02/22 06:17:09;;;;;;;0.00;0.00;;;;;;;;;;5022892;28;20273;-75
2022/02/22 06:19:36;;;;;;;0.00;0.00;;;;;;;;;;5020120;28;20215;-75
2022/02/22 06:22:04;;;;;;;1.23;1.03;;;;;;;;;;5022236;28;20196;-74
2022/02/22 06:24:33;;;;;;;0.00;0.00;;;;;;;;;;5021039;28;20756;-75
2022/02/22 06:27:00;;;;;;;4.03;0.83;;;;;;;;;;5022181;28;20196;-75
2022/02/22 06:29:28;;;;;;;0.00;0.00;;;;;;;;;;5022336;28;20208;-75
2022/02/22 06:31:55;;;;;;;0.00;0.00;;;;;;;;;;5018190;28;20200;-75
2022/02/22 06:34:22;;;;;;;0.60;0.33;;;;;;;;;;5024419;28;20210;-75
2022/02/22 06:36:50;;;;;;;0.00;0.00;;;;;;;;;;5022288;28;20636;-75
2022/02/22 06:39:17;;;;;;;2.73;0.47;;;;;;;;;;5021552;28;20200;-75
2022/02/22 06:41:46;;;;;;;0.57;0.20;;;;;;;;;;5018591;28;20666;-75
2022/02/22 06:44:15;;;;;;;0.03;0.03;;;;;;;;;;5022159;28;20270;-74
2022/02/22 06:46:42;;;;;;;0.10;0.10;;;;;;;;;;5018991;28;20204;-74
2022/02/22 06:49:10;;;;;;;0.00;0.00;;;;;;;;;;5021263;28;20193;-74
2022/02/22 06:51:37;;;;;;;0.30;0.30;;;;;;;;;;5019480;28;20201;-74
2022/02/22 06:54:05;;;;;;;3.33;3.03;;;;;;;;;;5023611;28;20769;-74
2022/02/22 06:56:32;;;;;;;1.70;1.27;;;;;;;;;;5022836;28;20235;-73
2022/02/22 06:59:01;;;;;;;0.20;0.20;;;;;;;;;;5021468;28;20287;-75
2022/02/22 07:01:28;;;;;;;0.00;0.00;;;;;;;;;;5021571;28;20222;-75
2022/02/22 07:03:56;;;;;;;0.20;0.20;;;;;;;;;;5019104;28;20203;-74
2022/02/22 07:06:23;;;;;;;2.50;2.30;;;;;;;;;;5021361;28;20657;-77
2022/02/22 07:08:50;;;;;;;0.17;0.17;;;;;;;;;;5025547;28;20215;-75
2022/02/22 07:11:18;;;;;;;1.50;1.10;;;;;;;;;;5023483;28;20207;-75
2022/02/22 07:13:45;;;;;;;1.40;0.83;;;;;;;;;;5021846;28;20215;-75
2022/02/22 07:16:14;;;;;;;0.73;0.33;;;;;;;;;;5018681;28;20212;-75
2022/02/22 07:18:43;;;;;;;0.53;0.43;;;;;;;;;;5018028;28;20234;-73
2022/02/22 07:21:10;;;;;;;1.23;1.13;;;;;;;;;;5020160;28;20196;-79
2022/02/22 07:23:37;;;;;;;11.03;1.97;;;;;;;;;;5017890;28;20200;-72
2022/02/22 07:26:05;;;;;;;8.30;0.97;;;;;;;;;;5016409;28;20200;-75
2022/02/22 07:28:32;;;;;;;4.37;1.23;;;;;;;;;;5024767;28;20200;-72
2022/02/22 07:30:59;;;;;;;0.30;0.13;;;;;;;;;;5029072;28;20211;-74
2022/02/22 07:33:28;;;;;;;4.57;1.43;;;;;;;;;;5029692;28;20199;-72
2022/02/22 07:35:56;;;;;;;0.00;0.00;;;;;;;;;;5028901;28;20232;-74
2022/02/22 07:38:23;;;;;;;5.73;2.13;;;;;;;;;;5021580;28;20228;-72
2022/02/22 07:40:50;;;;;;;0.20;0.20;;;;;;;;;;5020514;28;20208;-72
2022/02/22 07:43:18;;;;;;;0.93;0.10;;;;;;;;;;5022502;28;20873;-74
2022/02/22 07:45:45;;;;;;;6.07;1.90;;;;;;;;;;5022093;28;20212;-75
2022/02/22 07:48:12;;;;;;;5.57;0.43;;;;;;;;;;5022351;28;20212;-75
2022/02/22 07:50:41;;;;;;;0.60;0.50;;;;;;;;;;5020582;28;20199;-76
2022/02/22 07:53:09;;;;;;;4.10;1.10;;;;;;;;;;5020966;28;20248;-76
2022/02/22 07:55:36;;;;;;;1.07;0.87;;;;;;;;;;5022916;28;20197;-75
2022/02/22 07:58:04;;;;;;;0.30;0.30;;;;;;;;;;5021594;28;20311;-73
2022/02/22 08:00:31;;;;;;;6.63;1.93;;;;;;;;;;5020909;28;20208;-72
2022/02/22 08:02:58;;;;;;;0.60;0.60;;;;;;;;;;5017964;28;20200;-73
2022/02/22 08:05:26;;;;;;;1.03;0.73;;;;;;;;;;5020032;28;20204;-73
2022/02/22 08:07:54;;;;;;;8.83;1.60;;;;;;;;;;5023656;28;20216;-72
2022/02/22 08:10:22;;;;;;;0.13;0.13;;;;;;;;;;5024619;28;20207;-73
2022/02/22 08:12:51;;;;;;;1.43;0.83;;;;;;;;;;5014670;28;20207;-73
2022/02/22 08:15:18;;;;;;;3.60;0.90;;;;;;;;;;5030854;28;20227;-73
2022/02/22 08:17:46;;;;;;;0.27;0.23;;;;;;;;;;5031879;28;20601;-73
2022/02/22 08:20:13;;;;;;;3.60;1.20;;;;;;;;;;5029705;28;20226;-73
2022/02/22 08:22:41;;;;;;;3.37;1.93;;;;;;;;;;5018238;28;20236;-73
2022/02/22 08:25:10;;;;;;;2.73;1.00;;;;;;;;;;5030613;28;20238;-73
2022/02/22 08:27:38;;;;;;;0.40;0.40;;;;;;;;;;5031106;28;20200;-73
2022/02/22 08:30:06;;;;;;;0.00;0.00;;;;;;;;;;5028754;28;20686;-73
2022/02/22 08:32:33;;;;;;;7.63;1.20;;;;;;;;;;5030251;28;20210;-74
2022/02/22 08:35:01;;;;;;;4.73;2.33;;;;;;;;;;5026908;28;20715;-72
2022/02/22 08:37:28;;;;;;;0.80;0.53;;;;;;;;;;5030504;28;20224;-74
2022/02/22 08:39:55;;;;;;;0.73;0.73;;;;;;;;;;5019661;28;20205;-74
2022/02/22 08:42:24;;;;;;;3.93;1.07;;;;;;;;;;5030788;28;20239;-73
2022/02/22 08:44:53;;;;;;;4.23;1.10;;;;;;;;;;5029387;28;20926;-72
2022/02/22 08:47:20;;;;;;;4.77;1.70;;;;;;;;;;5030537;28;20196;-73
2022/02/22 08:49:48;;;;;;;6.67;1.40;;;;;;;;;;5015817;28;20208;-75
2022/02/22 08:52:17;;;;;;;9.30;0.93;;;;;;;;;;5030364;28;20595;-74
2022/02/22 08:54:46;;;;;;;1.70;0.83;;;;;;;;;;5030324;28;20982;-76
2022/02/22 08:57:13;;;;;;;14.00;1.87;;;;;;;;;;5031031;28;20196;-75
2022/02/22 08:59:42;;;;;;;6.60;2.40;;;;;;;;;;5021935;28;20274;-74
2022/02/22 09:02:09;;;;;;;2.67;0.83;;;;;;;;;;5014751;28;20200;-74
2022/02/22 09:04:37;;;;;;;0.20;0.20;;;;;;;;;;5016968;28;20200;-74
2022/02/22 09:07:04;;;;;;;18.77;2.93;;;;;;;;;;5020539;28;20703;-72
2022/02/22 09:09:32;;;;;;;5.93;3.17;;;;;;;;;;5020140;28;20203;-76
2022/02/22 09:12:00;;;;;;;4.03;0.50;;;;;;;;;;5017230;28;20211;-75
2022/02/22 09:14:30;;;;;;;2.67;0.57;;;;;;;;;;5034278;28;20287;-75
2022/02/22 09:16:58;;;;;;;0.00;0.00;;;;;;;;;;5031348;28;20679;-75
2022/02/22 09:19:26;;;;;;;4.97;1.83;;;;;;;;;;5030059;28;20231;-75
2022/02/22 09:21:53;;;;;;;1.90;1.43;;;;;;;;;;5023884;28;20200;-75
2022/02/22 09:24:20;;;;;;;0.93;0.67;;;;;;;;;;5023069;28;20200;-76
2022/02/22 09:26:48;;;;;;;7.13;2.53;;;;;;;;;;5023086;28;20193;-75
2022/02/22 09:29:15;;;;;;;7.00;1.83;;;;;;;;;;5024628;28;21341;-75
2022/02/22 09:31:44;;;;;;;0.73;0.73;;;;;;;;;;5022586;28;20598;-75
2022/02/22 09:34:14;;;;;;;11.33;1.77;;;;;;;;;;5020165;28;20211;-77
2022/02/22 09:36:43;;;;;;;4.30;2.37;;;;;;;;;;5022801;28;20228;-76
2022/02/22 09:39:10;;;;;;;0.87;0.63;;;;;;;;;;5024139;28;20800;-77
2022/02/22 09:41:38;;;;;;;9.00;1.53;;;;;;;;;;5023350;28;20208;-77
2022/02/22 09:44:06;;;;;;;8.17;3.03;;;;;;;;;;5023081;28;20204;-78
2022/02/22 09:46:35;;;;;;;7.80;3.00;;;;;;;;;;5023363;28;20222;-77
2022/02/22 09:49:02;;;;;;;0.20;0.20;;;;;;;;;;5028709;28;20223;-76
2022/02/22 09:51:31;;;;;;;1.50;0.53;;;;;;;;;;5030451;28;20207;-77
2022/02/22 09:53:58;;;;;;;1.97;1.80;;;;;;;;;;5024498;28;20665;-78
2022/02/22 09:56:26;;;;;;;1.10;0.40;;;;;;;;;;5029358;28;20212;-77
2022/02/22 09:58:53;;;;;;;6.50;1.40;;;;;;;;;;5027275;28;20315;-78
2022/02/22 10:01:22;;;;;;;3.90;2.00;;;;;;;;;;5021979;28;21032;-78
2022/02/22 10:03:58;;;;;;;0.30;0.30;;;;;;;;;;5021680;28;20577;-78
2022/02/22 10:06:26;;;;;;;0.43;0.43;;;;;;;;;;5022736;28;20269;-78
2022/02/22 10:08:56;;;;;;;0.33;0.33;;;;;;;;;;5022899;28;20204;-78
2022/02/22 10:11:24;;;;;;;5.50;2.17;;;;;;;;;;5022218;28;20235;-78
2022/02/22 10:13:51;;;;;;;4.30;0.97;;;;;;;;;;5022248;28;20246;-76
2022/02/22 10:16:19;;;;;;;12.93;1.17;;;;;;;;;;5026418;28;20243;-77
2022/02/22 10:18:47;;;;;;;0.43;0.43;;;;;;;;;;5028224;28;20220;-77
2022/02/22 10:21:15;;;;;;;2.17;1.23;;;;;;;;;;5021738;28;20200;-77
2022/02/22 10:23:42;;;;;;;1.10;1.00;;;;;;;;;;5035511;28;20193;-77
2022/02/22 10:26:20;;;;;;;3.00;1.40;;;;;;;;;;5053924;28;20192;-76
2022/02/22 10:28:47;;;;;;;2.57;0.53;;;;;;;;;;5036291;28;20225;-78
2022/02/22 10:31:15;;;;;;;6.57;1.37;;;;;;;;;;5024946;28;20208;-77
2022/02/22 10:33:46;;;;;;;0.67;0.67;;;;;;;;;;5025699;28;20197;-77
2022/02/22 10:36:19;;;;;;;0.20;0.20;;;;;;;;;;5030504;28;20236;-77
2022/02/22 10:38:46;;;;;;;2.07;1.47;;;;;;;;;;5029092;28;20216;-77
2022/02/22 10:41:16;;;;;;;0.70;0.70;;;;;;;;;;5028659;28;20208;-76
2022/02/22 10:44:02;;;;;;;1.30;0.97;;;;;;;;;;5039872;28;20203;-78
2022/02/22 10:46:31;;;;;;;0.67;0.67;;;;;;;;;;5044880;28;20197;-73
2022/02/22 10:49:02;;;;;;;5.47;1.07;;;;;;;;;;5033179;28;20645;-75
2022/02/22 10:51:33;;;;;;;0.37;0.37;;;;;;;;;;5030004;28;20712;-71
2022/02/22 10:54:01;;;;;;;5.90;2.70;;;;;;;;;;5034144;28;20200;-72
2022/02/22 10:56:31;;;;;;;2.27;0.80;;;;;;;;;;5029651;28;20204;-75
2022/02/22 10:58:59;;;;;;;2.23;1.30;;;;;;;;;;5030141;28;20579;-77
2022/02/22 11:01:26;;;;;;;1.27;0.73;;;;;;;;;;5032387;28;20289;-75
2022/02/22 11:04:08;;;;;;;3.73;1.43;;;;;;;;;;5033512;28;20211;-78
2022/02/22 11:06:36;;;;;;;1.13;1.03;;;;;;;;;;5039791;28;20199;-76
2022/02/22 11:09:04;;;;;;;3.60;1.00;;;;;;;;;;5032835;28;20561;-74
2022/02/22 11:11:37;;;;;;;1.43;1.33;;;;;;;;;;5032711;28;20232;-76
2022/02/22 11:14:05;;;;;;;0.67;0.60;;;;;;;;;;5032105;28;20196;-77
2022/02/22 11:16:43;;;;;;;2.20;1.00;;;;;;;;;;5032708;28;20197;-75
2022/02/22 11:19:15;;;;;;;0.23;0.20;;;;;;;;;;5032322;28;20327;-76
2022/02/22 11:21:42;;;;;;;2.10;1.17;;;;;;;;;;5032718;28;20196;-76
2022/02/22 11:24:10;;;;;;;0.70;0.70;;;;;;;;;;5031644;28;20203;-76
2022/02/22 11:26:49;;;;;;;0.43;0.20;;;;;;;;;;5032126;28;20558;-77
2022/02/22 11:29:17;;;;;;;0.00;0.00;;;;;;;;;;5033037;28;20214;-73
2022/02/22 11:31:57;;;;;;;0.33;0.33;;;;;;;;;;5027381;28;20613;-76
2022/02/22 11:34:31;;;;;;;3.93;0.60;;;;;;;;;;5032897;28;20196;-78
2022/02/22 11:37:02;;;;;;;1.10;0.60;;;;;;;;;;5031774;28;20607;-75
2022/02/22 11:39:29;;;;;;;0.50;0.50;;;;;;;;;;5025693;28;20237;-76
2022/02/22 11:41:59;;;;;;;5.70;0.70;;;;;;;;;;5023952;28;20216;-80
2022/02/22 11:44:27;;;;;;;0.10;0.10;;;;;;;;;;5019442;28;20209;-75
2022/02/22 11:46:56;;;;;;;1.20;0.97;;;;;;;;;;5021440;28;20217;-75
2022/02/22 11:49:28;;;;;;;0.33;0.30;;;;;;;;;;5021882;28;20270;-75
2022/02/22 11:51:56;;;;;;;0.83;0.63;;;;;;;;;;5021454;28;20211;-80
2022/02/22 11:54:25;;;;;;;0.43;0.20;;;;;;;;;;5019772;28;20207;-74
2022/02/22 11:57:04;;;;;;;0.30;0.30;;;;;;;;;;5020976;28;20208;-73
2022/02/22 11:59:33;;;;;;;0.40;0.40;;;;;;;;;;5021048;28;20323;-74
2022/02/22 12:02:02;;;;;;;0.20;0.20;;;;;;;;;;5021413;28;20201;-72
2022/02/22 12:04:31;;;;;;;0.30;0.30;;;;;;;;;;5021994;28;20200;-74
2022/02/22 12:07:01;;;;;;;0.33;0.33;;;;;;;;;;5021035;28;20197;-73
2022/02/22 12:09:35;;;;;;;0.60;0.60;;;;;;;;;;5020701;28;20196;-73
2022/02/22 12:12:05;;;;;;;1.37;0.30;;;;;;;;;;5021234;28;20641;-74
2022/02/22 12:14:33;;;;;;;2.70;0.30;;;;;;;;;;5019569;28;20200;-73
2022/02/22 12:17:00;;;;;;;2.00;1.07;;;;;;;;;;5020082;28;20215;-72
2022/02/22 12:19:28;;;;;;;1.60;0.57;;;;;;;;;;5019241;28;20224;-72
2022/02/22 12:21:55;;;;;;;0.50;0.50;;;;;;;;;;5021282;28;20208;-72
2022/02/22 12:24:24;;;;;;;0.33;0.33;;;;;;;;;;5019889;28;20248;-72
2022/02/22 12:26:52;;;;;;;0.10;0.10;;;;;;;;;;5020298;28;20715;-73
2022/02/22 12:29:23;;;;;;;1.03;0.97;;;;;;;;;;5018983;28;20207;-73
2022/02/22 12:31:54;;;;;;;2.00;0.57;;;;;;;;;;5019957;28;20208;-73
2022/02/22 12:34:22;;;;;;;2.33;1.83;;;;;;;;;;5019412;28;20224;-74
2022/02/22 12:36:50;;;;;;;0.40;0.40;;;;;;;;;;5019135;28;20229;-73
2022/02/22 12:39:19;;;;;;;1.43;0.80;;;;;;;;;;5020561;28;20236;-71
2022/02/22 12:41:47;;;;;;;1.00;0.77;;;;;;;;;;5019931;28;20216;-73
2022/02/22 12:44:15;;;;;;;2.50;1.70;;;;;;;;;;5019470;28;20199;-73
2022/02/22 12:46:44;;;;;;;2.53;1.10;;;;;;;;;;5019920;28;20205;-73
2022/02/22 12:49:13;;;;;;;0.70;0.40;;;;;;;;;;5020375;28;20208;-72
2022/02/22 12:51:42;;;;;;;3.97;0.93;;;;;;;;;;5020097;28;20303;-70
2022/02/22 12:54:10;;;;;;;2.13;0.70;;;;;;;;;;5019458;28;20212;-73
2022/02/22 12:56:38;;;;;;;3.73;0.93;;;;;;;;;;5020116;28;20209;-74
2022/02/22 12:59:06;;;;;;;0.17;0.17;;;;;;;;;;5017679;28;20240;-75
2022/02/22 13:01:35;;;;;;;1.37;1.00;;;;;;;;;;5021309;28;20208;-74
2022/02/22 13:04:06;;;;;;;3.87;0.93;;;;;;;;;;5016438;28;20219;-79
2022/02/22 13:06:36;;;;;;;0.10;0.10;;;;;;;;;;5029284;28;20197;-75
2022/02/22 13:09:04;;;;;;;5.93;1.33;;;;;;;;;;5028665;28;20198;-75
2022/02/22 13:11:32;;;;;;;0.60;0.60;;;;;;;;;;5031891;28;20203;-76
2022/02/22 13:14:00;;;;;;;1.13;0.73;;;;;;;;;;5036678;28;20188;-75
2022/02/22 13:16:27;;;;;;;6.93;1.70;;;;;;;;;;5032553;28;20197;-76
2022/02/22 13:18:55;;;;;;;3.37;1.43;;;;;;;;;;5029900;28;20228;-74
2022/02/22 13:21:26;;;;;;;0.77;0.77;;;;;;;;;;5011533;28;20228;-75
2022/02/22 13:23:53;;;;;;;3.53;1.40;;;;;;;;;;5011702;28;20670;-76
2022/02/22 13:26:21;;;;;;;2.30;1.23;;;;;;;;;;5032598;28;20646;-75
2022/02/22 13:28:50;;;;;;;2.57;0.93;;;;;;;;;;5019725;28;20196;-76
2022/02/22 13:31:19;;;;;;;2.33;1.53;;;;;;;;;;5029926;28;20200;-76
2022/02/22 13:33:58;;;;;;;0.33;0.30;;;;;;;;;;5024044;28;20216;-75
2022/02/22 13:36:27;;;;;;;4.23;1.50;;;;;;;;;;5027580;28;20236;-76
2022/02/22 13:38:58;;;;;;;8.73;3.43;;;;;;;;;;5019523;28;20197;-75
2022/02/22 13:41:31;;;;;;;1.10;0.93;;;;;;;;;;5036779;28;20199;-76
2022/02/22 13:43:58;;;;;;;4.97;1.30;;;;;;;;;;5030400;28;20209;-75
2022/02/22 13:46:29;;;;;;;4.20;2.03;;;;;;;;;;5020187;28;20209;-75
2022/02/22 13:48:59;;;;;;;15.97;2.37;;;;;;;;;;5023888;28;20196;-75
2022/02/22 13:51:36;;;;;;;3.60;1.87;;;;;;;;;;5034493;28;20566;-75
2022/02/22 13:54:04;;;;;;;10.20;2.40;;;;;;;;;;5023939;28;20206;-77
2022/02/22 13:56:32;;;;;;;11.37;2.97;;;;;;;;;;5021577;28;20211;-78
2022/02/22 13:59:06;;;;;;;15.30;2.73;;;;;;;;;;5021524;28;21053;-75
2022/02/22 14:01:44;;;;;;;17.50;2.67;;;;;;;;;;5023269;28;20282;-82
2022/02/22 14:04:12;;;;;;;8.80;1.50;;;;;;;;;;5023092;28;20209;-77
2022/02/22 14:06:40;;;;;;;8.83;2.60;;;;;;;;;;5024003;28;20227;-72
2022/02/22 14:09:08;;;;;;;9.20;2.57;;;;;;;;;;5024199;28;20220;-73
2022/02/22 14:11:39;;;;;;;11.80;3.03;;;;;;;;;;5023081;28;20255;-76
2022/02/22 14:14:06;;;;;;;10.63;3.03;;;;;;;;;;5019950;28;20196;-72
2022/02/22 14:16:34;;;;;;;16.53;3.20;;;;;;;;;;5024173;28;20205;-73
2022/02/22 14:19:01;;;;;;;7.77;2.77;;;;;;;;;;5022329;28;20692;-72
2022/02/22 14:21:28;;;;;;;5.97;2.77;;;;;;;;;;5023654;28;20212;-71
2022/02/22 14:23:57;;;;;;;12.07;2.83;;;;;;;;;;5022765;28;20627;-72
2022/02/22 14:26:25;;;;;;;7.70;2.20;;;;;;;;;;5022704;28;20200;-73
2022/02/22 14:28:52;;;;;;;5.77;1.87;;;;;;;;;;5023432;28;20212;-73
2022/02/22 14:31:20;;;;;;;4.07;2.60;;;;;;;;;;5023850;28;20216;-70
2022/02/22 14:33:47;;;;;;;16.07;2.20;;;;;;;;;;5021909;28;20205;-73
2022/02/22 14:36:14;;;;;;;10.53;0.97;;;;;;;;;;5022371;28;20219;-73
2022/02/22 14:38:42;;;;;;;13.03;2.67;;;;;;;;;;5023084;28;20291;-73
2022/02/22 14:41:11;;;;;;;1.93;1.53;;;;;;;;;;5020700;28;20235;-72
2022/02/22 14:43:38;;;;;;;8.93;2.30;;;;;;;;;;5021930;28;20209;-72
2022/02/22 14:46:06;;;;;;;10.60;2.67;;;;;;;;;;5020552;28;20219;-78
2022/02/22 14:48:34;;;;;;;9.53;2.43;;;;;;;;;;5022145;28;20205;-73